sensor_id;sensor_type;location;lat;lon;timestamp;pressure;altitude;pressure_sealevel;temperature;humidity
58769;BME280;44536;47.474;19.056;2023-04-04T00:00:39;100740.06;;;2.23;46.04
58769;BME280;44536;47.474;19.056;2023-04-04T00:03:42;100745.22;;;2.25;44.98
58769;BME280;44536;47.474;19.056;2023-04-04T00:06:44;100748.13;;;2.17;45.93
58769;BME280;44536;47.474;19.056;2023-04-04T00:09:48;100745.22;;;2.25;45.42
58769;BME280;44536;47.474;19.056;2023-04-04T00:12:51;100745.59;;;2.14;46.47
58769;BME280;44536;47.474;19.056;2023-04-04T00:15:54;100748.13;;;2.17;46.17
58769;BME280;44536;47.474;19.056;2023-04-04T00:18:56;100751.53;;;2.19;45.91
58769;BME280;44536;47.474;19.056;2023-04-04T00:21:59;100752.31;;;1.98;48.16
58769;BME280;44536;47.474;19.056;2023-04-04T00:25:01;100755.50;;;2.06;47.34
58769;BME280;44536;47.474;19.056;2023-04-04T00:28:04;100757.28;;;2.06;47.38
58769;BME280;44536;47.474;19.056;2023-04-04T00:31:07;100761.75;;;2.02;47.14
58769;BME280;44536;47.474;19.056;2023-04-04T00:34:10;100761.75;;;2.02;47.48
58769;BME280;44536;47.474;19.056;2023-04-04T00:37:13;100768.00;;;1.98;47.06
58769;BME280;44536;47.474;19.056;2023-04-04T00:40:16;100767.28;;;1.93;47.41
58769;BME280;44536;47.474;19.056;2023-04-04T00:43:19;100760.47;;;1.89;47.91
58769;BME280;44536;47.474;19.056;2023-04-04T00:46:22;100767.50;;;1.87;47.98
58769;BME280;44536;47.474;19.056;2023-04-04T00:49:26;100759.97;;;1.78;50.06
58769;BME280;44536;47.474;19.056;2023-04-04T00:52:28;100759.22;;;1.74;49.80
58769;BME280;44536;47.474;19.056;2023-04-04T00:55:31;100744.44;;;1.73;48.28
58769;BME280;44536;47.474;19.056;2023-04-04T00:58:33;100744.31;;;1.76;49.18
58769;BME280;44536;47.474;19.056;2023-04-04T01:01:36;100737.44;;;1.74;49.53
58769;BME280;44536;47.474;19.056;2023-04-04T01:04:39;100734.72;;;1.77;48.67
58769;BME280;44536;47.474;19.056;2023-04-04T01:07:41;100723.22;;;1.82;48.31
58769;BME280;44536;47.474;19.056;2023-04-04T01:10:45;100721.44;;;1.83;48.42
58769;BME280;44536;47.474;19.056;2023-04-04T01:13:47;100715.66;;;1.73;48.81
58769;BME280;44536;47.474;19.056;2023-04-04T01:16:51;100716.25;;;1.81;48.19
58769;BME280;44536;47.474;19.056;2023-04-04T01:20:19;100710.28;;;1.78;48.46
58769;BME280;44536;47.474;19.056;2023-04-04T01:23:35;100710.06;;;1.84;47.74
58769;BME280;44536;47.474;19.056;2023-04-04T01:26:40;100698.22;;;1.74;49.32
58769;BME280;44536;47.474;19.056;2023-04-04T01:29:44;100698.06;;;1.78;48.65
58769;BME280;44536;47.474;19.056;2023-04-04T01:32:52;100685.41;;;1.66;49.22
58769;BME280;44536;47.474;19.056;2023-04-04T01:39:41;100679.22;;;1.69;49.32
58769;BME280;44536;47.474;19.056;2023-04-04T01:42:47;100672.41;;;1.64;49.02
58769;BME280;44536;47.474;19.056;2023-04-04T01:45:51;100661.84;;;1.67;49.52
58769;BME280;44536;47.474;19.056;2023-04-04T01:48:54;100660.06;;;1.68;49.79
58769;BME280;44536;47.474;19.056;2023-04-04T01:51:56;100654.91;;;1.66;49.99
58769;BME280;44536;47.474;19.056;2023-04-04T01:55:01;100654.16;;;1.63;49.44
58769;BME280;44536;47.474;19.056;2023-04-04T01:58:04;100649.22;;;1.55;49.96
58769;BME280;44536;47.474;19.056;2023-04-04T02:01:06;100641.28;;;1.57;50.80
58769;BME280;44536;47.474;19.056;2023-04-04T02:04:09;100635.47;;;1.50;50.73
58769;BME280;44536;47.474;19.056;2023-04-04T02:07:15;100639.97;;;1.45;50.82
58769;BME280;44536;47.474;19.056;2023-04-04T02:10:18;100634.72;;;1.47;50.43
58769;BME280;44536;47.474;19.056;2023-04-04T02:13:21;100627.47;;;1.55;50.69
58769;BME280;44536;47.474;19.056;2023-04-04T02:16:24;100624.84;;;1.55;51.73
58769;BME280;44536;47.474;19.056;2023-04-04T02:19:27;100619.19;;;1.42;51.33
58769;BME280;44536;47.474;19.056;2023-04-04T02:22:30;100621.94;;;1.38;51.45
58769;BME280;44536;47.474;19.056;2023-04-04T02:25:32;100613.41;;;1.32;52.13
58769;BME280;44536;47.474;19.056;2023-04-04T02:28:35;100614.16;;;1.36;51.30
58769;BME280;44536;47.474;19.056;2023-04-04T02:31:37;100606.44;;;1.33;51.45
58769;BME280;44536;47.474;19.056;2023-04-04T02:34:42;100604.81;;;1.29;51.59
58769;BME280;44536;47.474;19.056;2023-04-04T02:37:45;100604.56;;;1.37;51.33
58769;BME280;44536;47.474;19.056;2023-04-04T02:40:52;100596.13;;;1.28;52.50
58769;BME280;44536;47.474;19.056;2023-04-04T02:43:55;100614.16;;;1.36;51.84
58769;BME280;44536;47.474;19.056;2023-04-04T02:46:57;100610.22;;;1.24;52.11
58769;BME280;44536;47.474;19.056;2023-04-04T02:50:02;100601.09;;;1.36;51.23
58769;BME280;44536;47.474;19.056;2023-04-04T02:53:05;100604.03;;;1.27;52.49
58769;BME280;44536;47.474;19.056;2023-04-04T02:56:08;100615.97;;;1.34;52.02
58769;BME280;44536;47.474;19.056;2023-04-04T02:59:11;100621.41;;;1.28;52.53
58769;BME280;44536;47.474;19.056;2023-04-04T03:02:13;100611.59;;;1.35;52.15
58769;BME280;44536;47.474;19.056;2023-04-04T03:05:16;100615.59;;;1.20;52.47
58769;BME280;44536;47.474;19.056;2023-04-04T03:08:18;100620.09;;;1.15;52.67
58769;BME280;44536;47.474;19.056;2023-04-04T03:11:22;100620.19;;;1.12;53.24
58769;BME280;44536;47.474;19.056;2023-04-04T03:14:25;100628.88;;;1.12;53.23
58769;BME280;44536;47.474;19.056;2023-04-04T03:17:29;100626.97;;;1.17;53.31
58769;BME280;44536;47.474;19.056;2023-04-04T03:20:31;100627.47;;;1.28;52.10
58769;BME280;44536;47.474;19.056;2023-04-04T03:23:34;100625.03;;;1.24;52.70
58769;BME280;44536;47.474;19.056;2023-04-04T03:26:36;100631.16;;;1.23;53.18
58769;BME280;44536;47.474;19.056;2023-04-04T03:29:39;100628.84;;;1.14;54.02
58769;BME280;44536;47.474;19.056;2023-04-04T03:32:42;100635.12;;;1.08;53.66
58769;BME280;44536;47.474;19.056;2023-04-04T03:35:45;100627.09;;;1.14;53.83
58769;BME280;44536;47.474;19.056;2023-04-04T03:38:48;100630.56;;;1.15;54.50
58769;BME280;44536;47.474;19.056;2023-04-04T03:41:50;100642.19;;;1.05;54.64
58769;BME280;44536;47.474;19.056;2023-04-04T03:44:53;100642.44;;;0.98;55.35
58769;BME280;44536;47.474;19.056;2023-04-04T03:47:59;100640.44;;;1.05;53.20
58769;BME280;44536;47.474;19.056;2023-04-04T03:51:03;100652.72;;;1.03;53.49
58769;BME280;44536;47.474;19.056;2023-04-04T03:54:06;100646.75;;;0.99;54.04
58769;BME280;44536;47.474;19.056;2023-04-04T03:57:08;100641.19;;;1.09;53.69
58769;BME280;44536;47.474;19.056;2023-04-04T04:00:11;100647.88;;;1.17;52.98
58769;BME280;44536;47.474;19.056;2023-04-04T04:03:14;100637.63;;;1.11;53.36
58769;BME280;44536;47.474;19.056;2023-04-04T04:06:20;100630.75;;;1.09;53.88
58769;BME280;44536;47.474;19.056;2023-04-04T04:09:22;100628.56;;;0.96;54.96
58769;BME280;44536;47.474;19.056;2023-04-04T04:12:25;100628.25;;;1.06;54.37
58769;BME280;44536;47.474;19.056;2023-04-04T04:15:27;100626.38;;;1.09;54.58
58769;BME280;44536;47.474;19.056;2023-04-04T04:18:30;100628.19;;;1.07;54.68
58769;BME280;44536;47.474;19.056;2023-04-04T04:21:34;100623.72;;;1.11;53.78
58769;BME280;44536;47.474;19.056;2023-04-04T04:24:36;100628.19;;;1.07;53.81
58769;BME280;44536;47.474;19.056;2023-04-04T04:27:39;100620.19;;;1.12;53.14
58769;BME280;44536;47.474;19.056;2023-04-04T04:30:42;100630.56;;;1.15;53.10
58769;BME280;44536;47.474;19.056;2023-04-04T04:33:46;100617.34;;;1.19;53.97
58769;BME280;44536;47.474;19.056;2023-04-04T04:36:51;100623.41;;;1.20;53.36
58769;BME280;44536;47.474;19.056;2023-04-04T04:39:55;100617.19;;;1.24;53.05
58769;BME280;44536;47.474;19.056;2023-04-04T04:43:00;100617.84;;;1.30;52.58
58769;BME280;44536;47.474;19.056;2023-04-04T04:46:02;100622.22;;;1.30;53.03
58769;BME280;44536;47.474;19.056;2023-04-04T04:49:06;100624.41;;;1.42;53.14
58769;BME280;44536;47.474;19.056;2023-04-04T04:52:09;100619.38;;;1.61;51.79
58769;BME280;44536;47.474;19.056;2023-04-04T04:55:14;100620.81;;;1.70;52.05
58769;BME280;44536;47.474;19.056;2023-04-04T04:58:17;100619.41;;;1.84;50.78
58769;BME280;44536;47.474;19.056;2023-04-04T05:01:24;100620.09;;;1.89;50.11
58769;BME280;44536;47.474;19.056;2023-04-04T05:04:27;100612.72;;;2.01;49.13
58769;BME280;44536;47.474;19.056;2023-04-04T05:07:30;100612.41;;;2.08;49.52
58769;BME280;44536;47.474;19.056;2023-04-04T05:10:33;100610.37;;;2.16;48.67
58769;BME280;44536;47.474;19.056;2023-04-04T05:13:36;100605.94;;;2.18;49.68
58769;BME280;44536;47.474;19.056;2023-04-04T05:16:39;100602.06;;;2.28;48.68
58769;BME280;44536;47.474;19.056;2023-04-04T05:19:42;100608.44;;;2.45;48.30
58769;BME280;44536;47.474;19.056;2023-04-04T05:22:47;100604.88;;;2.67;48.60
58769;BME280;44536;47.474;19.056;2023-04-04T05:25:53;100607.81;;;3.04;46.95
58769;BME280;44536;47.474;19.056;2023-04-04T05:28:56;100624.00;;;3.33;45.91
58769;BME280;44536;47.474;19.056;2023-04-04T05:32:01;100627.97;;;3.83;44.14
58769;BME280;44536;47.474;19.056;2023-04-04T05:35:04;100623.50;;;4.43;42.94
58769;BME280;44536;47.474;19.056;2023-04-04T05:38:07;100627.00;;;4.79;42.68
58769;BME280;44536;47.474;19.056;2023-04-04T05:41:09;100624.59;;;5.28;40.38
58769;BME280;44536;47.474;19.056;2023-04-04T05:44:12;100629.28;;;5.21;41.15
58769;BME280;44536;47.474;19.056;2023-04-04T05:47:14;100627.06;;;5.48;39.53
58769;BME280;44536;47.474;19.056;2023-04-04T05:50:17;100626.09;;;6.66;37.91
58769;BME280;44536;47.474;19.056;2023-04-04T05:53:22;100630.72;;;7.08;36.81
58769;BME280;44536;47.474;19.056;2023-04-04T05:56:24;100634.16;;;7.54;36.15
58769;BME280;44536;47.474;19.056;2023-04-04T05:59:27;100650.81;;;8.41;35.36
58769;BME280;44536;47.474;19.056;2023-04-04T06:02:30;100642.41;;;9.56;32.46
58769;BME280;44536;47.474;19.056;2023-04-04T06:05:34;100638.31;;;10.28;31.32
58769;BME280;44536;47.474;19.056;2023-04-04T06:08:39;100632.94;;;11.38;29.62
58769;BME280;44536;47.474;19.056;2023-04-04T06:11:54;100638.53;;;11.22;29.33
58769;BME280;44536;47.474;19.056;2023-04-04T06:14:57;100627.44;;;11.64;28.94
58769;BME280;44536;47.474;19.056;2023-04-04T06:17:59;100642.12;;;12.92;27.47
58769;BME280;44536;47.474;19.056;2023-04-04T06:21:02;100630.69;;;13.86;26.73
58769;BME280;44536;47.474;19.056;2023-04-04T06:24:05;100641.69;;;15.71;24.64
58769;BME280;44536;47.474;19.056;2023-04-04T06:27:08;100641.13;;;14.50;24.83
58769;BME280;44536;47.474;19.056;2023-04-04T06:30:11;100642.69;;;15.50;23.92
58769;BME280;44536;47.474;19.056;2023-04-04T06:33:15;100616.28;;;14.59;25.12
58769;BME280;44536;47.474;19.056;2023-04-04T06:36:19;100601.19;;;15.27;24.31
58769;BME280;44536;47.474;19.056;2023-04-04T06:39:22;100584.34;;;14.08;24.82
58769;BME280;44536;47.474;19.056;2023-04-04T06:42:27;100597.81;;;14.06;26.43
58769;BME280;44536;47.474;19.056;2023-04-04T06:45:29;100596.53;;;12.74;26.80
58769;BME280;44536;47.474;19.056;2023-04-04T06:48:34;100603.75;;;12.18;27.68
58769;BME280;44536;47.474;19.056;2023-04-04T06:51:39;100589.03;;;10.26;29.51
58769;BME280;44536;47.474;19.056;2023-04-04T06:54:42;100594.16;;;8.86;31.77
58769;BME280;44536;47.474;19.056;2023-04-04T06:57:44;100598.75;;;8.29;32.79
58769;BME280;44536;47.474;19.056;2023-04-04T07:00:48;100600.09;;;8.63;32.97
58769;BME280;44536;47.474;19.056;2023-04-04T07:03:55;100609.78;;;7.93;33.79
58769;BME280;44536;47.474;19.056;2023-04-04T07:06:58;100608.19;;;7.02;35.47
58769;BME280;44536;47.474;19.056;2023-04-04T07:10:01;100603.69;;;6.10;36.47
58769;BME280;44536;47.474;19.056;2023-04-04T07:13:03;100606.37;;;5.92;37.44
58769;BME280;44536;47.474;19.056;2023-04-04T07:16:05;100607.91;;;5.79;38.45
58769;BME280;44536;47.474;19.056;2023-04-04T07:19:08;100620.25;;;5.61;39.06
58769;BME280;44536;47.474;19.056;2023-04-04T07:22:10;100623.91;;;5.07;39.39
58769;BME280;44536;47.474;19.056;2023-04-04T07:25:14;100621.97;;;5.11;41.00
58769;BME280;44536;47.474;19.056;2023-04-04T07:28:17;100621.28;;;5.59;39.35
58769;BME280;44536;47.474;19.056;2023-04-04T07:31:20;100620.56;;;5.21;40.53
58769;BME280;44536;47.474;19.056;2023-04-04T07:34:22;100619.87;;;5.69;39.31
58769;BME280;44536;47.474;19.056;2023-04-04T07:37:27;100622.28;;;5.56;39.11
58769;BME280;44536;47.474;19.056;2023-04-04T07:40:29;100616.97;;;5.74;39.25
58769;BME280;44536;47.474;19.056;2023-04-04T07:43:33;100611.53;;;6.11;38.54
58769;BME280;44536;47.474;19.056;2023-04-04T07:46:35;100614.28;;;6.57;37.48
58769;BME280;44536;47.474;19.056;2023-04-04T07:49:38;100619.87;;;6.51;38.08
58769;BME280;44536;47.474;19.056;2023-04-04T07:52:40;100615.44;;;6.36;37.62
58769;BME280;44536;47.474;19.056;2023-04-04T07:55:43;100617.13;;;6.37;36.83
58769;BME280;44536;47.474;19.056;2023-04-04T07:58:46;100627.88;;;6.65;36.64
58769;BME280;44536;47.474;19.056;2023-04-04T08:01:49;100633.13;;;6.65;37.69
58769;BME280;44536;47.474;19.056;2023-04-04T08:04:51;100632.28;;;6.49;37.13
58769;BME280;44536;47.474;19.056;2023-04-04T08:07:54;100635.97;;;5.63;38.12
58769;BME280;44536;47.474;19.056;2023-04-04T08:10:57;100621.31;;;5.92;38.65
58769;BME280;44536;47.474;19.056;2023-04-04T08:13:59;100615.78;;;6.45;37.90
58769;BME280;44536;47.474;19.056;2023-04-04T08:17:02;100609.59;;;6.62;37.48
58769;BME280;44536;47.474;19.056;2023-04-04T08:20:05;100616.75;;;7.06;37.86
58769;BME280;44536;47.474;19.056;2023-04-04T08:23:07;100635.91;;;7.39;35.57
58769;BME280;44536;47.474;19.056;2023-04-04T08:26:11;100634.16;;;7.54;35.91
58769;BME280;44536;47.474;19.056;2023-04-04T08:29:13;100627.66;;;7.29;35.95
58769;BME280;44536;47.474;19.056;2023-04-04T08:32:15;100623.47;;;7.11;35.33
58769;BME280;44536;47.474;19.056;2023-04-04T08:35:18;100620.09;;;6.78;37.27
58769;BME280;44536;47.474;19.056;2023-04-04T08:38:21;100637.09;;;6.88;35.58
58769;BME280;44536;47.474;19.056;2023-04-04T08:41:24;100628.69;;;6.81;36.04
58769;BME280;44536;47.474;19.056;2023-04-04T08:44:32;100625.22;;;7.26;35.79
58769;BME280;44536;47.474;19.056;2023-04-04T08:47:37;100609.75;;;7.20;35.63
58769;BME280;44536;47.474;19.056;2023-04-04T08:50:40;100606.31;;;7.04;35.51
58769;BME280;44536;47.474;19.056;2023-04-04T08:53:49;100624.38;;;7.26;34.76
58769;BME280;44536;47.474;19.056;2023-04-04T08:56:52;100607.50;;;6.98;35.36
58769;BME280;44536;47.474;19.056;2023-04-04T08:59:55;100597.00;;;6.67;35.97
58769;BME280;44536;47.474;19.056;2023-04-04T09:03:08;100601.56;;;6.95;35.86
58769;BME280;44536;47.474;19.056;2023-04-04T09:06:11;100597.13;;;7.55;35.16
58769;BME280;44536;47.474;19.056;2023-04-04T09:09:15;100596.37;;;7.82;34.66
58769;BME280;44536;47.474;19.056;2023-04-04T09:12:19;100602.16;;;7.74;35.48
58769;BME280;44536;47.474;19.056;2023-04-04T09:15:23;100605.72;;;8.02;34.42
58769;BME280;44536;47.474;19.056;2023-04-04T09:18:27;100599.47;;;7.60;35.77
58769;BME280;44536;47.474;19.056;2023-04-04T09:21:32;100596.56;;;7.93;35.05
58769;BME280;44536;47.474;19.056;2023-04-04T09:24:40;100599.13;;;7.94;35.48
58769;BME280;44536;47.474;19.056;2023-04-04T09:27:44;100597.88;;;7.86;35.15
58769;BME280;44536;47.474;19.056;2023-04-04T09:30:47;100609.09;;;8.32;33.94
58769;BME280;44536;47.474;19.056;2023-04-04T09:33:50;100607.13;;;8.50;33.99
58769;BME280;44536;47.474;19.056;2023-04-04T09:36:53;100589.56;;;8.49;33.98
58769;BME280;44536;47.474;19.056;2023-04-04T09:39:55;100588.44;;;8.39;32.96
58769;BME280;44536;47.474;19.056;2023-04-04T09:42:59;100599.03;;;8.10;34.43
58769;BME280;44536;47.474;19.056;2023-04-04T09:46:02;100596.81;;;8.59;34.29
58769;BME280;44536;47.474;19.056;2023-04-04T09:49:09;100588.22;;;8.56;33.86
58769;BME280;44536;47.474;19.056;2023-04-04T09:52:18;100572.84;;;9.02;33.37
58769;BME280;44536;47.474;19.056;2023-04-04T09:55:32;100576.72;;;9.23;32.56
58769;BME280;44536;47.474;19.056;2023-04-04T09:58:35;100570.81;;;9.45;32.23
58769;BME280;44536;47.474;19.056;2023-04-04T10:01:53;100585.53;;;10.25;31.88
58769;BME280;44536;47.474;19.056;2023-04-04T10:04:56;100576.53;;;10.03;31.10
58769;BME280;44536;47.474;19.056;2023-04-04T10:08:20;100587.88;;;10.30;30.90
58769;BME280;44536;47.474;19.056;2023-04-04T10:11:31;100591.34;;;10.05;31.08
58769;BME280;44536;47.474;19.056;2023-04-04T10:14:34;100588.81;;;9.91;32.35
58769;BME280;44536;47.474;19.056;2023-04-04T10:17:39;100578.84;;;9.94;31.06
58769;BME280;44536;47.474;19.056;2023-04-04T10:20:43;100580.47;;;9.72;30.91
58769;BME280;44536;47.474;19.056;2023-04-04T10:23:47;100580.28;;;9.87;30.97
58769;BME280;44536;47.474;19.056;2023-04-04T10:26:50;100559.88;;;9.37;31.14
58769;BME280;44536;47.474;19.056;2023-04-04T10:29:52;100560.75;;;9.50;32.38
58769;BME280;44536;47.474;19.056;2023-04-04T10:33:06;100551.34;;;9.59;31.97
58769;BME280;44536;47.474;19.056;2023-04-04T10:36:15;100554.75;;;9.74;31.96
58769;BME280;44536;47.474;19.056;2023-04-04T10:39:32;100553.03;;;9.73;31.31
58769;BME280;44536;47.474;19.056;2023-04-04T10:42:38;100547.00;;;9.71;31.14
58769;BME280;44536;47.474;19.056;2023-04-04T10:45:41;100553.78;;;9.87;31.67
58769;BME280;44536;47.474;19.056;2023-04-04T10:48:46;100548.09;;;10.17;30.74
58769;BME280;44536;47.474;19.056;2023-04-04T10:51:50;100552.75;;;10.63;29.93
58769;BME280;44536;47.474;19.056;2023-04-04T10:55:01;100554.50;;;10.75;28.71
58769;BME280;44536;47.474;19.056;2023-04-04T10:58:05;100565.84;;;11.36;29.79
58769;BME280;44536;47.474;19.056;2023-04-04T11:01:09;100556.59;;;11.18;28.71
58769;BME280;44536;47.474;19.056;2023-04-04T11:04:19;100554.22;;;12.71;27.95
58769;BME280;44536;47.474;19.056;2023-04-04T11:07:27;100551.53;;;13.03;27.14
58769;BME280;44536;47.474;19.056;2023-04-04T11:13:34;100543.50;;;13.14;25.75
58769;BME280;44536;47.474;19.056;2023-04-04T11:16:46;100544.22;;;13.28;25.12
58769;BME280;44536;47.474;19.056;2023-04-04T11:19:59;100534.75;;;12.71;25.55
58769;BME280;44536;47.474;19.056;2023-04-04T11:26:06;100538.13;;;13.67;25.04
58769;BME280;44536;47.474;19.056;2023-04-04T11:29:09;100540.09;;;13.65;24.88
58769;BME280;44536;47.474;19.056;2023-04-04T11:32:41;100532.72;;;15.16;23.16
58769;BME280;44536;47.474;19.056;2023-04-04T11:36:04;100531.06;;;15.06;22.86
58769;BME280;44536;47.474;19.056;2023-04-04T11:39:29;100525.97;;;14.45;24.79
58769;BME280;44536;47.474;19.056;2023-04-04T11:42:36;100515.19;;;15.04;23.50
58769;BME280;44536;47.474;19.056;2023-04-04T11:45:46;100518.81;;;14.65;23.05
58769;BME280;44536;47.474;19.056;2023-04-04T11:48:49;100507.47;;;15.01;23.26
58769;BME280;44536;47.474;19.056;2023-04-04T11:51:51;100506.91;;;14.78;23.21
58769;BME280;44536;47.474;19.056;2023-04-04T11:54:54;100503.53;;;15.05;23.56
58769;BME280;44536;47.474;19.056;2023-04-04T11:58:05;100494.66;;;14.47;25.36
58769;BME280;44536;47.474;19.056;2023-04-04T12:01:07;100507.97;;;15.34;22.51
58769;BME280;44536;47.474;19.056;2023-04-04T12:04:10;100497.72;;;15.29;22.65
58769;BME280;44536;47.474;19.056;2023-04-04T12:07:13;100500.72;;;15.07;23.02
58769;BME280;44536;47.474;19.056;2023-04-04T12:10:20;100489.75;;;15.00;24.40
58769;BME280;44536;47.474;19.056;2023-04-04T12:13:29;100482.72;;;14.51;23.64
58769;BME280;44536;47.474;19.056;2023-04-04T12:16:34;100489.47;;;14.45;24.56
58769;BME280;44536;47.474;19.056;2023-04-04T12:19:38;100469.28;;;14.12;24.67
58769;BME280;44536;47.474;19.056;2023-04-04T12:22:41;100475.28;;;13.95;24.50
58769;BME280;44536;47.474;19.056;2023-04-04T12:25:47;100467.22;;;13.76;25.06
58769;BME280;44536;47.474;19.056;2023-04-04T12:28:59;100464.63;;;14.54;25.40
58769;BME280;44536;47.474;19.056;2023-04-04T12:32:03;100465.53;;;14.34;24.30
58769;BME280;44536;47.474;19.056;2023-04-04T12:35:06;100470.22;;;14.42;24.35
58769;BME280;44536;47.474;19.056;2023-04-04T12:38:15;100459.53;;;14.71;24.26
58769;BME280;44536;47.474;19.056;2023-04-04T12:41:17;100454.69;;;15.22;24.31
58769;BME280;44536;47.474;19.056;2023-04-04T12:44:37;100455.88;;;15.01;23.97
58769;BME280;44536;47.474;19.056;2023-04-04T12:47:54;100457.28;;;14.56;23.39
58769;BME280;44536;47.474;19.056;2023-04-04T12:50:58;100446.31;;;14.31;24.70
58769;BME280;44536;47.474;19.056;2023-04-04T12:54:03;100442.09;;;14.28;24.10
58769;BME280;44536;47.474;19.056;2023-04-04T12:57:05;100440.13;;;13.71;25.15
58769;BME280;44536;47.474;19.056;2023-04-04T13:00:11;100446.81;;;13.96;25.60
58769;BME280;44536;47.474;19.056;2023-04-04T13:03:15;100444.06;;;14.36;24.12
58769;BME280;44536;47.474;19.056;2023-04-04T13:06:18;100440.22;;;14.00;25.67
58769;BME280;44536;47.474;19.056;2023-04-04T13:09:22;100442.38;;;13.75;25.12
58769;BME280;44536;47.474;19.056;2023-04-04T13:12:25;100447.06;;;13.22;25.11
58769;BME280;44536;47.474;19.056;2023-04-04T13:15:46;100433.69;;;12.59;26.20
58769;BME280;44536;47.474;19.056;2023-04-04T13:18:49;100430.69;;;12.32;25.63
58769;BME280;44536;47.474;19.056;2023-04-04T13:21:51;100433.22;;;11.90;26.88
58769;BME280;44536;47.474;19.056;2023-04-04T13:24:55;100425.44;;;11.99;26.92
58769;BME280;44536;47.474;19.056;2023-04-04T13:27:57;100435.50;;;11.73;28.40
58769;BME280;44536;47.474;19.056;2023-04-04T13:31:04;100434.41;;;11.53;27.23
58769;BME280;44536;47.474;19.056;2023-04-04T13:34:07;100426.09;;;11.80;27.32
58769;BME280;44536;47.474;19.056;2023-04-04T13:37:09;100437.50;;;11.02;28.34
58769;BME280;44536;47.474;19.056;2023-04-04T13:40:12;100420.28;;;11.19;28.09
58769;BME280;44536;47.474;19.056;2023-04-04T13:43:14;100421.19;;;10.95;29.05
58769;BME280;44536;47.474;19.056;2023-04-04T13:46:17;100425.44;;;11.09;28.20
58769;BME280;44536;47.474;19.056;2023-04-04T13:49:19;100429.41;;;11.04;28.04
58769;BME280;44536;47.474;19.056;2023-04-04T13:52:22;100424.84;;;11.06;28.58
58769;BME280;44536;47.474;19.056;2023-04-04T13:55:25;100428.19;;;10.85;28.63
58769;BME280;44536;47.474;19.056;2023-04-04T13:58:28;100430.25;;;10.93;28.64
58769;BME280;44536;47.474;19.056;2023-04-04T14:01:30;100416.97;;;10.93;29.03
58769;BME280;44536;47.474;19.056;2023-04-04T14:04:33;100415.12;;;11.40;28.98
58769;BME280;44536;47.474;19.056;2023-04-04T14:07:36;100421.03;;;11.32;27.77
58769;BME280;44536;47.474;19.056;2023-04-04T14:10:39;100413.75;;;11.12;28.67
58769;BME280;44536;47.474;19.056;2023-04-04T14:13:41;100415.19;;;11.05;27.74
58769;BME280;44536;47.474;19.056;2023-04-04T14:16:44;100412.16;;;10.98;28.69
58769;BME280;44536;47.474;19.056;2023-04-04T14:19:46;100420.53;;;11.16;27.92
58769;BME280;44536;47.474;19.056;2023-04-04T14:22:49;100419.16;;;10.88;28.71
58769;BME280;44536;47.474;19.056;2023-04-04T14:25:51;100424.59;;;10.86;28.62
58769;BME280;44536;47.474;19.056;2023-04-04T14:28:54;100417.75;;;10.60;28.74
58769;BME280;44536;47.474;19.056;2023-04-04T14:31:56;100426.38;;;10.51;29.20
58769;BME280;44536;47.474;19.056;2023-04-04T14:34:59;100420.91;;;10.30;29.21
58769;BME280;44536;47.474;19.056;2023-04-04T14:38:02;100427.31;;;10.02;30.26
58769;BME280;44536;47.474;19.056;2023-04-04T14:41:04;100428.50;;;9.98;29.86
58769;BME280;44536;47.474;19.056;2023-04-04T14:44:06;100425.19;;;9.83;29.48
58769;BME280;44536;47.474;19.056;2023-04-04T14:47:09;100435.97;;;9.31;30.42
58769;BME280;44536;47.474;19.056;2023-04-04T14:50:12;100426.19;;;9.44;31.32
58769;BME280;44536;47.474;19.056;2023-04-04T14:53:14;100431.47;;;9.70;30.85
58769;BME280;44536;47.474;19.056;2023-04-04T14:56:17;100427.00;;;9.70;30.47
58769;BME280;44536;47.474;19.056;2023-04-04T14:59:19;100439.44;;;9.44;30.43
58769;BME280;44536;47.474;19.056;2023-04-04T15:02:21;100431.09;;;9.25;31.30
58769;BME280;44536;47.474;19.056;2023-04-04T15:05:24;100430.47;;;9.21;30.48
58769;BME280;44536;47.474;19.056;2023-04-04T15:08:27;100423.91;;;9.27;30.96
58769;BME280;44536;47.474;19.056;2023-04-04T15:11:30;100437.97;;;9.15;31.02
58769;BME280;44536;47.474;19.056;2023-04-04T15:14:32;100431.09;;;9.25;31.30
58769;BME280;44536;47.474;19.056;2023-04-04T15:17:35;100430.47;;;9.09;30.55
58769;BME280;44536;47.474;19.056;2023-04-04T15:20:37;100427.28;;;9.04;31.29
58769;BME280;44536;47.474;19.056;2023-04-04T15:23:41;100433.09;;;8.96;30.98
58769;BME280;44536;47.474;19.056;2023-04-04T15:26:43;100439.97;;;8.99;32.10
58769;BME280;44536;47.474;19.056;2023-04-04T15:29:46;100448.00;;;8.97;31.92
58769;BME280;44536;47.474;19.056;2023-04-04T15:32:48;100437.41;;;8.84;31.52
58769;BME280;44536;47.474;19.056;2023-04-04T15:35:54;100444.37;;;8.85;32.24
58769;BME280;44536;47.474;19.056;2023-04-04T15:38:57;100441.13;;;8.82;31.83
58769;BME280;44536;47.474;19.056;2023-04-04T15:41:59;100441.00;;;8.71;32.43
58769;BME280;44536;47.474;19.056;2023-04-04T15:45:02;100444.28;;;8.74;32.53
58769;BME280;44536;47.474;19.056;2023-04-04T15:48:05;100448.94;;;8.71;32.43
58769;BME280;44536;47.474;19.056;2023-04-04T15:51:07;100450.06;;;8.54;32.22
58769;BME280;44536;47.474;19.056;2023-04-04T15:54:11;100453.91;;;8.36;33.61
58769;BME280;44536;47.474;19.056;2023-04-04T15:57:13;100454.69;;;8.23;33.92
58769;BME280;44536;47.474;19.056;2023-04-04T16:00:16;100456.63;;;8.07;33.30
58769;BME280;44536;47.474;19.056;2023-04-04T16:03:18;100453.97;;;8.07;33.01
58769;BME280;44536;47.474;19.056;2023-04-04T16:06:23;100464.91;;;8.01;33.96
58769;BME280;44536;47.474;19.056;2023-04-04T16:09:26;100468.91;;;7.94;34.20